Bookmark and Share
Track history (hours):
 

Livorno Express

Last reported at 2014-Apr-18 20:33 UTC. Time now 2014-Apr-18 20:52 UTC.
Position N 43°34' E 010°18'.

Type: Cargo ship. MMSI: 310541000.

NotesDate/timePositionNaut miles runAvg speedWind from/ knotsBaromVisibWave heightAir tempDewpointWater temp
2014-Apr-18 20:33N 43°34' E 010°18'0 0.0
2014-Apr-18 19:31N 43°34' E 010°18'0 0.0
2014-Apr-18 18:31N 43°34' E 010°18'0 0.0
2014-Apr-18 17:31N 43°34' E 010°18'0 0.0
2014-Apr-18 16:32N 43°34' E 010°18'0 0.0
2014-Apr-18 15:32N 43°34' E 010°18'0 0.0
2014-Apr-18 14:32N 43°34' E 010°18'0 0.0
2014-Apr-18 13:32N 43°34' E 010°18'0 0.0
2014-Apr-18 12:32N 43°34' E 010°18'0 0.0
2014-Apr-18 11:28N 43°34' E 010°18'0 0.0
2014-Apr-18 10:31N 43°34' E 010°18'0 0.0
2014-Apr-18 09:31N 43°34' E 010°18'0 0.0
2014-Apr-18 08:28N 43°34' E 010°18'0 0.0
2014-Apr-18 07:31N 43°34' E 010°18'0 0.0
2014-Apr-18 06:31N 43°34' E 010°18'0 0.0
2014-Apr-18 05:29N 43°34' E 010°18'2 2.2
2014-Apr-18 04:33N 43°32' E 010°17'6 6.4
2014-Apr-18 03:33N 43°28' E 010°11'1515.4
2014-Apr-18 02:33N 43°13' E 010°06'1817.1
2014-Apr-18 01:30N 42°56' E 009°58'1617.2
2014-Apr-18 00:33N 42°40' E 009°52'1717.1
2014-Apr-17 23:32N 42°23' E 009°51'1616.5
2014-Apr-17 22:33N 42°07' E 009°58'17217.2
2014-Apr-17 12:33N 40°35' E 013°11'1818.0
2014-Apr-17 11:32N 40°30' E 013°35'1717.8
2014-Apr-17 10:33N 40°25' E 013°56'1817.5
2014-Apr-17 09:33N 40°25' E 014°20'1716.5
2014-Apr-17 08:33N 40°34' E 014°38'4 0.3
2014-Apr-16 18:32N 40°31' E 014°39'1211.4
2014-Apr-16 17:28N 40°19' E 014°33'6 1.2
2014-Apr-16 12:20N 40°25' E 014°36'1 1.2
2014-Apr-16 11:31N 40°26' E 014°37'2 1.6
2014-Apr-16 10:27N 40°27' E 014°38'1 1.5
2014-Apr-16 09:33N 40°28' E 014°40'2 1.6
2014-Apr-16 08:17N 40°30' E 014°41'11 5.3
2014-Apr-16 06:14N 40°27' E 014°28'0 0.4
2014-Apr-16 05:23N 40°27' E 014°28'1 1.0
2014-Apr-16 04:33N 40°27' E 014°29'1 0.8
2014-Apr-16 03:14N 40°28' E 014°29'0 0.7
2014-Apr-16 02:32N 40°29' E 014°30'2 1.7
2014-Apr-16 01:33N 40°29' E 014°32'6 2.0
2014-Apr-15 22:30N 40°31' E 014°39'5 3.7
2014-Apr-15 21:13N 40°29' E 014°34'913.8
2014-Apr-15 20:33N 40°26' E 014°23'1814.2
2014-Apr-15 19:19N 40°19' E 014°02'1413.7
2014-Apr-15 18:16N 40°13' E 013°44'22014.9
2014-Apr-15 03:33N 38°58' E 009°16'1313.5
2014-Apr-15 02:34N 39°09' E 009°06'4 4.4
2014-Apr-15 01:33N 39°13' E 009°04'0 0.0
2014-Apr-15 00:33N 39°13' E 009°04'0 0.0
2014-Apr-14 23:33N 39°13' E 009°04'0 0.0
2014-Apr-14 22:33N 39°13' E 009°04'0 0.0
2014-Apr-14 21:33N 39°13' E 009°04'0 0.0
2014-Apr-14 20:33N 39°13' E 009°04'0 0.0
2014-Apr-14 19:33N 39°13' E 009°04'0 0.0
2014-Apr-14 18:33N 39°13' E 009°04'0 0.0
2014-Apr-14 17:33N 39°13' E 009°04'0 0.0
2014-Apr-14 16:33N 39°13' E 009°04'0 0.0
2014-Apr-14 15:33N 39°13' E 009°04'0 0.0
2014-Apr-14 14:33N 39°13' E 009°04'0 0.0
2014-Apr-14 13:33N 39°13' E 009°04'0 0.0
2014-Apr-14 11:33N 39°13' E 009°04'0 0.0
2014-Apr-14 10:33N 39°13' E 009°04'0 0.0
2014-Apr-14 09:33N 39°13' E 009°04'0 0.0
2014-Apr-14 08:33N 39°13' E 009°04'0 0.0
2014-Apr-14 07:33N 39°13' E 009°04'0 0.0
2014-Apr-14 06:33N 39°13' E 009°04'0 0.0
2014-Apr-14 05:33N 39°13' E 009°04'0 0.0
2014-Apr-13 22:33N 39°13' E 009°04'5 4.6
2014-Apr-13 21:33N 39°09' E 009°07'6 6.1
2014-Apr-13 20:33N 39°03' E 009°09'1312.9
2014-Apr-13 19:33N 38°51' E 009°04'1414.2
2014-Apr-13 18:33N 38°42' E 008°50'1615.6
2014-Apr-13 17:32N 38°38' E 008°30'1715.6
2014-Apr-13 16:28N 38°33' E 008°10'  
2014-Apr-09 07:00N 40°18' W 026°12'   130 / 101020.7 5.4 14.0 17.0

Dump ship's entire track history

sailing weather and tide predictions

Livorno Express — ZCDV9 — position and weather